createdAt,value
2019-05-14T00:00:53.531Z,8.29
2019-05-14T00:01:53.513Z,8.25
2019-05-14T00:02:53.525Z,8.26
2019-05-14T00:03:53.502Z,8.15
2019-05-14T00:04:53.496Z,8.12
2019-05-14T00:05:53.478Z,8.15
2019-05-14T00:06:53.467Z,8.18
2019-05-14T00:07:53.465Z,8.15
2019-05-14T00:08:53.434Z,8.11
2019-05-14T00:09:53.450Z,8.10
2019-05-14T00:10:53.462Z,8.11
2019-05-14T00:11:53.419Z,8.07
2019-05-14T00:12:53.389Z,8.14
2019-05-14T00:13:53.386Z,8.08
2019-05-14T00:14:53.413Z,8.08
2019-05-14T00:15:53.365Z,8.02
2019-05-14T00:16:53.356Z,8.03
2019-05-14T00:17:53.350Z,8.04
2019-05-14T00:18:53.339Z,8.04
2019-05-14T00:20:06.322Z,7.97
2019-05-14T00:20:54.307Z,7.94
2019-05-14T00:21:53.315Z,7.92
2019-05-14T00:22:53.283Z,7.94
2019-05-14T00:23:53.290Z,7.93
2019-05-14T00:24:53.283Z,7.93
2019-05-14T00:25:53.259Z,7.97
2019-05-14T00:26:53.248Z,7.94
2019-05-14T00:27:53.229Z,7.92
2019-05-14T00:28:53.227Z,7.92
2019-05-14T00:29:53.232Z,7.89
2019-05-14T00:30:53.208Z,7.96
2019-05-14T00:31:53.189Z,7.99
2019-05-14T00:32:53.169Z,7.97
2019-05-14T00:33:53.160Z,7.94
2019-05-14T00:34:53.164Z,7.92
2019-05-14T00:35:53.142Z,7.97
2019-05-14T00:36:53.149Z,7.94
2019-05-14T00:37:53.124Z,8.04
2019-05-14T00:38:53.122Z,8.04
2019-05-14T00:39:53.108Z,8.00
2019-05-14T00:40:53.084Z,7.96
2019-05-14T00:41:53.075Z,8.11
2019-05-14T00:42:53.432Z,8.07
2019-05-14T00:43:53.064Z,8.07
2019-05-14T00:44:57.713Z,7.99
2019-05-14T00:45:53.054Z,8.00
2019-05-14T00:46:53.016Z,8.00
2019-05-14T00:47:53.017Z,7.96
2019-05-14T00:48:53.004Z,7.97
2019-05-14T00:49:53.010Z,7.96
2019-05-14T00:50:53.003Z,8.00
2019-05-14T00:51:52.978Z,7.96
2019-05-14T00:52:52.948Z,7.99
2019-05-14T00:53:52.952Z,7.94
2019-05-14T00:54:52.935Z,7.96
2019-05-14T00:55:52.917Z,7.97
2019-05-14T00:56:52.918Z,7.93
2019-05-14T00:57:52.912Z,8.00
2019-05-14T00:58:52.885Z,7.89
2019-05-14T00:59:52.887Z,7.93
2019-05-14T01:00:52.875Z,7.99
2019-05-14T01:01:52.864Z,7.93
2019-05-14T01:02:52.852Z,7.93
2019-05-14T01:03:52.841Z,7.90
2019-05-14T01:04:52.842Z,7.92
2019-05-14T01:05:52.809Z,7.96
2019-05-14T01:06:52.813Z,7.89
2019-05-14T01:07:52.792Z,7.87
2019-05-14T01:08:52.793Z,7.92
2019-05-14T01:09:52.795Z,7.84
2019-05-14T01:10:52.766Z,7.92
2019-05-14T01:11:52.752Z,7.87
2019-05-14T01:12:52.757Z,7.87
2019-05-14T01:13:52.720Z,7.85
2019-05-14T01:15:06.674Z,7.89
2019-05-14T01:15:53.712Z,7.85
2019-05-14T01:16:52.688Z,7.81
2019-05-14T01:17:52.682Z,7.77
2019-05-14T01:18:52.687Z,7.77
2019-05-14T01:19:52.686Z,7.72
2019-05-14T01:20:52.681Z,7.78
2019-05-14T01:21:52.643Z,7.74
2019-05-14T01:22:52.631Z,7.60
2019-05-14T01:23:52.624Z,7.69
2019-05-14T01:24:52.607Z,7.58
2019-05-14T01:25:52.598Z,7.52
2019-05-14T01:26:52.574Z,7.52
2019-05-14T01:27:52.572Z,7.63
2019-05-14T01:28:52.566Z,7.58
2019-05-14T01:29:52.569Z,7.63
2019-05-14T01:30:52.530Z,7.63
2019-05-14T01:31:52.531Z,7.63
2019-05-14T01:32:52.527Z,7.66
2019-05-14T01:33:52.516Z,7.52
2019-05-14T01:34:52.530Z,7.60
2019-05-14T01:35:52.491Z,7.55
2019-05-14T01:36:53.022Z,7.55
2019-05-14T01:37:52.462Z,7.55
2019-05-14T01:38:52.445Z,7.47
2019-05-14T01:39:52.456Z,7.37
2019-05-14T01:40:52.721Z,7.38
2019-05-14T01:41:52.423Z,7.42
2019-05-14T01:42:52.466Z,7.34
2019-05-14T01:43:52.391Z,7.34
2019-05-14T01:44:52.377Z,7.32
2019-05-14T01:45:52.636Z,7.32
2019-05-14T01:46:52.373Z,7.22
2019-05-14T01:47:52.360Z,7.26
2019-05-14T01:48:52.340Z,7.23
2019-05-14T01:49:52.321Z,7.22
2019-05-14T01:50:52.331Z,7.24
2019-05-14T01:51:52.301Z,7.24
2019-05-14T01:52:52.299Z,7.16
2019-05-14T01:53:52.291Z,7.19
2019-05-14T01:54:52.280Z,7.19
2019-05-14T01:55:52.293Z,7.17
2019-05-14T01:56:52.252Z,7.17
2019-05-14T01:57:52.235Z,7.15
2019-05-14T01:58:52.446Z,7.12
2019-05-14T01:59:52.219Z,7.09
2019-05-14T02:00:52.517Z,7.16
2019-05-14T02:01:52.202Z,7.13
2019-05-14T02:02:52.433Z,7.16
2019-05-14T02:03:52.170Z,7.09
2019-05-14T02:04:52.181Z,7.09
2019-05-14T02:05:52.289Z,7.01
2019-05-14T02:06:52.148Z,7.05
2019-05-14T02:07:52.661Z,7.05
2019-05-14T02:08:52.119Z,7.05
2019-05-14T02:09:52.104Z,7.01
2019-05-14T02:10:52.769Z,7.05
2019-05-14T02:11:52.089Z,6.98
2019-05-14T02:12:52.077Z,6.98
2019-05-14T02:13:52.076Z,6.97
2019-05-14T02:14:52.065Z,6.94
2019-05-14T02:15:52.250Z,6.99
2019-05-14T02:16:52.038Z,6.90
2019-05-14T02:17:52.028Z,6.86
2019-05-14T02:18:52.351Z,6.90
2019-05-14T02:19:52.017Z,6.91
2019-05-14T02:20:52.303Z,6.97
2019-05-14T02:21:51.978Z,6.89
2019-05-14T02:22:52.556Z,6.87
2019-05-14T02:23:51.958Z,6.83
2019-05-14T02:24:52.168Z,6.81
2019-05-14T02:25:52.023Z,6.77
2019-05-14T02:26:51.936Z,6.79
2019-05-14T02:27:52.098Z,6.81
2019-05-14T02:28:51.900Z,6.71
2019-05-14T02:29:52.098Z,6.76
2019-05-14T02:30:57.677Z,6.79
2019-05-14T02:31:52.860Z,6.77
2019-05-14T02:32:51.867Z,6.73
2019-05-14T02:33:51.864Z,6.66
2019-05-14T02:34:51.830Z,6.77
2019-05-14T02:35:51.833Z,6.71
2019-05-14T02:36:51.810Z,6.63
2019-05-14T02:37:51.800Z,6.73
2019-05-14T02:38:51.809Z,6.62
2019-05-14T02:39:51.791Z,6.68
2019-05-14T02:40:51.777Z,6.65
2019-05-14T02:41:51.757Z,6.65
2019-05-14T02:42:51.743Z,6.61
2019-05-14T02:43:51.734Z,6.63
2019-05-14T02:44:51.732Z,6.61
2019-05-14T02:46:09.739Z,6.61
2019-05-14T02:46:52.729Z,6.50
2019-05-14T02:47:51.702Z,6.53
2019-05-14T02:48:51.680Z,6.50
2019-05-14T02:49:51.668Z,6.59
2019-05-14T02:50:51.683Z,6.59
2019-05-14T02:51:51.652Z,6.63
2019-05-14T02:52:51.648Z,6.51
2019-05-14T02:53:51.639Z,6.48
2019-05-14T02:54:51.613Z,6.59
2019-05-14T02:55:51.610Z,6.48
2019-05-14T02:56:51.595Z,6.56
2019-05-14T02:57:51.599Z,6.50
2019-05-14T02:58:51.584Z,6.61
2019-05-14T02:59:51.571Z,6.53
2019-05-14T03:00:51.572Z,6.50
2019-05-14T03:01:51.551Z,6.59
2019-05-14T03:02:51.525Z,6.50
2019-05-14T03:03:51.521Z,6.47
2019-05-14T03:04:51.521Z,6.48
2019-05-14T03:05:51.517Z,6.48
2019-05-14T03:06:51.481Z,6.59
2019-05-14T03:07:51.470Z,6.47
2019-05-14T03:08:51.471Z,6.59
2019-05-14T03:09:51.461Z,6.46
2019-05-14T03:10:51.456Z,6.50
2019-05-14T03:11:51.431Z,6.47
2019-05-14T03:12:51.430Z,6.58
2019-05-14T03:13:51.401Z,6.59
2019-05-14T03:14:51.408Z,6.53
2019-05-14T03:15:51.408Z,6.53
2019-05-14T03:16:51.375Z,6.50
2019-05-14T03:17:51.368Z,6.53
2019-05-14T03:18:51.366Z,6.43
2019-05-14T03:19:51.355Z,6.51
2019-05-14T03:20:51.328Z,6.62
2019-05-14T03:21:51.331Z,6.47
2019-05-14T03:23:03.120Z,6.50
2019-05-14T03:23:52.305Z,6.46
2019-05-14T03:24:51.307Z,6.43
2019-05-14T03:25:51.263Z,6.50
2019-05-14T03:26:51.275Z,6.47
2019-05-14T03:27:51.248Z,6.44
2019-05-14T03:28:51.250Z,6.46
2019-05-14T03:29:51.237Z,6.44
2019-05-14T03:30:52.852Z,6.47
2019-05-14T03:31:53.073Z,6.47
2019-05-14T03:32:52.863Z,6.47
2019-05-14T03:33:52.725Z,6.41
2019-05-14T03:34:53.435Z,6.43
2019-05-14T03:35:58.860Z,6.40
2019-05-14T03:36:53.405Z,6.40
2019-05-14T03:37:51.170Z,6.36
2019-05-14T03:38:51.126Z,6.47
2019-05-14T03:39:51.114Z,6.43
2019-05-14T03:40:51.111Z,6.47
2019-05-14T03:41:51.123Z,6.44
2019-05-14T03:42:51.088Z,6.50
2019-05-14T03:43:51.081Z,6.43
2019-05-14T03:44:51.066Z,6.54
2019-05-14T03:45:51.075Z,6.47
2019-05-14T03:46:55.489Z,6.46
2019-05-14T03:47:52.020Z,6.50
2019-05-14T03:48:51.024Z,6.56
2019-05-14T03:49:51.013Z,6.63
2019-05-14T03:50:51.002Z,6.62
2019-05-14T03:51:51.011Z,6.63
2019-05-14T03:52:50.991Z,6.65
2019-05-14T03:54:00.951Z,6.79
2019-05-14T03:54:51.970Z,6.84
2019-05-14T03:55:50.950Z,6.86
2019-05-14T03:56:50.948Z,6.89
2019-05-14T03:57:50.935Z,6.97
2019-05-14T03:58:50.899Z,7.02
2019-05-14T03:59:50.974Z,7.12
2019-05-14T04:00:51.167Z,7.26
2019-05-14T04:01:51.378Z,7.37
2019-05-14T04:02:50.879Z,7.42
2019-05-14T04:03:50.864Z,7.52
2019-05-14T04:04:50.838Z,7.50
2019-05-14T04:05:50.824Z,7.47
2019-05-14T04:06:50.820Z,7.50
2019-05-14T04:07:50.809Z,7.56
2019-05-14T04:08:50.799Z,7.92
2019-05-14T04:09:50.794Z,8.02
2019-05-14T04:10:54.305Z,8.21
2019-05-14T04:11:50.764Z,8.25
2019-05-14T04:12:50.750Z,8.45
2019-05-14T04:13:50.753Z,8.62
2019-05-14T04:14:50.750Z,8.66
2019-05-14T04:15:50.728Z,8.73
2019-05-14T04:17:01.376Z,8.90
2019-05-14T04:17:51.712Z,8.84
2019-05-14T04:18:50.751Z,8.88
2019-05-14T04:19:50.700Z,9.10
2019-05-14T04:20:50.681Z,9.13
2019-05-14T04:21:50.689Z,9.13
2019-05-14T04:22:50.658Z,9.27
2019-05-14T04:23:51.412Z,9.31
2019-05-14T04:24:50.622Z,9.35
2019-05-14T04:25:50.617Z,9.39
2019-05-14T04:27:02.336Z,9.52
2019-05-14T04:27:51.606Z,9.49
2019-05-14T04:28:50.645Z,9.50
2019-05-14T04:29:50.561Z,9.64
2019-05-14T04:30:50.551Z,9.66
2019-05-14T04:31:50.570Z,9.75
2019-05-14T04:32:50.917Z,9.79
2019-05-14T04:33:50.522Z,9.85
2019-05-14T04:34:50.507Z,9.93
2019-05-14T04:35:50.499Z,10.03
2019-05-14T04:36:50.710Z,9.93
2019-05-14T04:37:50.511Z,9.96
2019-05-14T04:38:54.889Z,10.01
2019-05-14T04:39:50.816Z,10.12
2019-05-14T04:40:50.447Z,10.17
2019-05-14T04:41:50.438Z,10.36
2019-05-14T04:42:50.694Z,10.53
2019-05-14T04:43:50.593Z,10.56
2019-05-14T04:44:50.898Z,10.66
2019-05-14T04:45:50.393Z,10.73
2019-05-14T04:46:50.379Z,10.94
2019-05-14T04:47:50.377Z,11.17
2019-05-14T04:48:51.143Z,11.35
2019-05-14T04:49:50.826Z,11.43
2019-05-14T04:50:50.347Z,11.59
2019-05-14T04:51:50.595Z,11.85
2019-05-14T04:52:50.321Z,11.94
2019-05-14T04:53:50.604Z,12.05
2019-05-14T04:54:50.428Z,12.30
2019-05-14T04:55:50.272Z,12.51
2019-05-14T04:56:50.988Z,12.70
2019-05-14T04:57:50.406Z,13.09
2019-05-14T04:58:50.593Z,13.25
2019-05-14T04:59:50.241Z,13.22
2019-05-14T05:00:50.291Z,13.38
2019-05-14T05:01:50.224Z,13.47
2019-05-14T05:02:50.281Z,13.63
2019-05-14T05:03:50.796Z,13.92
2019-05-14T05:04:50.994Z,14.01
2019-05-14T05:05:50.294Z,14.07
2019-05-14T05:06:50.272Z,14.28
2019-05-14T05:07:50.163Z,13.89
2019-05-14T05:08:50.396Z,13.54
2019-05-14T05:09:50.558Z,12.82
2019-05-14T05:10:50.125Z,12.60
2019-05-14T05:11:50.270Z,12.44
2019-05-14T05:12:50.099Z,12.87
2019-05-14T05:13:50.078Z,13.21
2019-05-14T05:14:50.081Z,13.77
2019-05-14T05:15:50.065Z,14.24
2019-05-14T05:16:50.053Z,14.67
2019-05-14T05:17:53.061Z,15.06
2019-05-14T05:18:50.018Z,15.41
2019-05-14T05:19:51.448Z,15.48
2019-05-14T05:20:50.784Z,15.70
2019-05-14T05:21:50.015Z,15.74
2019-05-14T05:22:49.997Z,15.59
2019-05-14T05:23:49.985Z,15.61
2019-05-14T05:24:49.954Z,15.59
2019-05-14T05:25:49.964Z,15.46
2019-05-14T05:26:49.934Z,15.78
2019-05-14T05:27:49.935Z,16.09
2019-05-14T05:29:02.374Z,16.30
2019-05-14T05:29:50.908Z,16.73
2019-05-14T05:30:49.904Z,16.80
2019-05-14T05:31:49.882Z,16.80
2019-05-14T05:32:49.894Z,16.75
2019-05-14T05:33:49.865Z,16.65
2019-05-14T05:34:49.851Z,16.58
2019-05-14T05:35:49.836Z,16.74
2019-05-14T05:36:49.816Z,16.58
2019-05-14T05:37:49.823Z,16.33
2019-05-14T05:38:49.794Z,16.48
2019-05-14T05:39:49.786Z,16.89
2019-05-14T05:40:49.805Z,17.06
2019-05-14T05:41:49.778Z,17.28
2019-05-14T05:42:49.758Z,16.98
2019-05-14T05:43:49.760Z,17.14
2019-05-14T05:44:49.738Z,17.07
2019-05-14T05:45:49.738Z,17.11
2019-05-14T05:46:49.724Z,16.35
2019-05-14T05:47:57.902Z,16.49
2019-05-14T05:48:50.701Z,16.74
2019-05-14T05:49:49.682Z,16.93
2019-05-14T05:50:49.667Z,17.22
2019-05-14T05:51:49.671Z,17.29
2019-05-14T05:52:53.470Z,17.33
2019-05-14T05:53:49.653Z,17.00
2019-05-14T05:54:49.635Z,17.00
2019-05-14T05:55:49.623Z,17.46
2019-05-14T05:56:49.602Z,17.15
2019-05-14T05:57:49.583Z,16.07
2019-05-14T05:58:49.578Z,16.20
2019-05-14T05:59:49.578Z,15.70
2019-05-14T06:00:49.921Z,15.85
2019-05-14T06:01:50.418Z,15.81
2019-05-14T06:02:49.536Z,15.60
2019-05-14T06:03:49.628Z,15.79
2019-05-14T06:04:49.526Z,15.35
2019-05-14T06:05:49.510Z,14.61
2019-05-14T06:06:49.502Z,13.81
2019-05-14T06:07:49.486Z,13.59
2019-05-14T06:08:49.609Z,13.25
2019-05-14T06:09:49.457Z,13.37
2019-05-14T06:10:49.448Z,14.38
2019-05-14T06:11:49.438Z,14.74
2019-05-14T06:12:49.432Z,14.49
2019-05-14T06:13:49.440Z,14.20
2019-05-14T06:14:49.423Z,13.61
2019-05-14T06:15:52.300Z,13.03
2019-05-14T06:16:49.376Z,12.67
2019-05-14T06:17:49.420Z,12.34
2019-05-14T06:18:49.373Z,12.30
2019-05-14T06:19:49.352Z,12.08
2019-05-14T06:20:49.598Z,12.06
2019-05-14T06:21:49.344Z,11.97
2019-05-14T06:22:49.325Z,12.13
2019-05-14T06:23:49.567Z,12.20
2019-05-14T06:24:49.314Z,12.26
2019-05-14T06:25:49.411Z,12.37
2019-05-14T06:26:49.272Z,12.39
2019-05-14T06:27:49.263Z,12.71
2019-05-14T06:28:49.819Z,13.63
2019-05-14T06:29:49.241Z,14.71
2019-05-14T06:30:49.219Z,15.60
2019-05-14T06:31:49.650Z,15.97
2019-05-14T06:32:49.209Z,16.77
2019-05-14T06:33:49.215Z,17.76
2019-05-14T06:34:49.220Z,18.59
2019-05-14T06:35:49.225Z,18.74
2019-05-14T06:36:49.174Z,18.64
2019-05-14T06:37:49.172Z,18.99
2019-05-14T06:38:49.751Z,19.24
2019-05-14T06:39:49.143Z,19.33
2019-05-14T06:40:49.161Z,19.21
2019-05-14T06:41:49.201Z,19.51
2019-05-14T06:42:49.096Z,19.28
2019-05-14T06:43:49.124Z,17.41
2019-05-14T06:44:49.460Z,16.34
2019-05-14T06:45:49.698Z,15.03
2019-05-14T06:46:52.568Z,14.13
2019-05-14T06:47:49.040Z,15.05
2019-05-14T06:48:49.087Z,16.04
2019-05-14T06:49:49.082Z,17.53
2019-05-14T06:50:50.397Z,18.47
2019-05-14T06:51:49.200Z,18.99
2019-05-14T06:52:49.319Z,19.80
2019-05-14T06:53:49.836Z,20.49
2019-05-14T06:54:49.580Z,20.54
2019-05-14T06:55:48.951Z,19.23
2019-05-14T06:56:49.005Z,18.79
2019-05-14T06:57:48.932Z,18.33
2019-05-14T06:58:49.327Z,17.55
2019-05-14T06:59:48.916Z,17.13
2019-05-14T07:00:49.486Z,16.62
2019-05-14T07:01:49.123Z,16.15
2019-05-14T07:02:49.276Z,15.97
2019-05-14T07:03:49.307Z,15.67
2019-05-14T07:04:48.869Z,15.60
2019-05-14T07:05:49.327Z,15.26
2019-05-14T07:06:48.826Z,15.93
2019-05-14T07:07:49.502Z,16.33
2019-05-14T07:08:52.155Z,16.67
2019-05-14T07:09:49.018Z,16.90
2019-05-14T07:10:48.796Z,17.64
2019-05-14T07:11:49.305Z,17.51
2019-05-14T07:12:49.886Z,17.28
2019-05-14T07:13:49.285Z,17.04
2019-05-14T07:14:48.769Z,16.59
2019-05-14T07:15:49.144Z,16.37
2019-05-14T07:16:48.733Z,16.41
2019-05-14T07:17:48.945Z,16.59
2019-05-14T07:18:52.925Z,16.71
2019-05-14T07:19:49.697Z,16.78
2019-05-14T07:20:48.702Z,16.81
2019-05-14T07:21:49.307Z,17.38
2019-05-14T07:22:48.693Z,16.96
2019-05-14T07:23:49.121Z,16.67
2019-05-14T07:24:49.790Z,16.38
2019-05-14T07:25:48.640Z,16.18
2019-05-14T07:26:49.338Z,16.16
2019-05-14T07:27:49.073Z,16.26
2019-05-14T07:28:49.056Z,16.48
2019-05-14T07:29:49.171Z,16.15
2019-05-14T07:30:48.802Z,16.00
2019-05-14T07:31:49.064Z,15.88
2019-05-14T07:32:48.595Z,17.15
2019-05-14T07:33:49.539Z,16.27
2019-05-14T07:34:48.523Z,15.52
2019-05-14T07:35:48.945Z,15.30
2019-05-14T07:36:49.088Z,15.42
2019-05-14T07:37:48.928Z,15.54
2019-05-14T07:38:49.191Z,15.67
2019-05-14T07:39:48.885Z,16.95
2019-05-14T07:40:49.398Z,16.95
2019-05-14T07:41:48.608Z,16.99
2019-05-14T07:42:48.820Z,16.63
2019-05-14T07:43:48.578Z,16.56
2019-05-14T07:44:48.684Z,16.09
2019-05-14T07:45:49.198Z,15.76
2019-05-14T07:46:48.501Z,15.68
2019-05-14T07:47:49.331Z,15.51
2019-05-14T07:49:03.957Z,15.24
2019-05-14T07:49:49.384Z,15.08
2019-05-14T07:50:51.883Z,14.84
2019-05-14T07:51:48.379Z,14.54
2019-05-14T07:52:49.719Z,14.17
2019-05-14T07:53:48.928Z,13.95
2019-05-14T07:54:48.347Z,13.83
2019-05-14T07:55:49.294Z,13.89
2019-05-14T07:56:50.911Z,13.91
2019-05-14T07:57:48.334Z,13.83
2019-05-14T07:58:49.160Z,13.80
2019-05-14T07:59:48.556Z,13.63
2019-05-14T08:00:49.164Z,13.69
2019-05-14T08:01:49.139Z,13.63
2019-05-14T08:02:49.108Z,13.73
2019-05-14T08:03:48.861Z,13.91
2019-05-14T08:04:48.744Z,13.83
2019-05-14T08:05:48.434Z,13.83
2019-05-14T08:06:48.715Z,13.91
2019-05-14T08:07:48.216Z,13.76
2019-05-14T08:08:49.249Z,13.80
2019-05-14T08:09:48.234Z,13.56
2019-05-14T08:10:48.690Z,13.37
2019-05-14T08:11:48.209Z,13.47
2019-05-14T08:12:48.610Z,13.89
2019-05-14T08:13:49.427Z,14.13
2019-05-14T08:15:09.463Z,14.25
2019-05-14T08:15:49.162Z,14.65
2019-05-14T08:16:48.930Z,14.83
2019-05-14T08:17:48.374Z,15.19
2019-05-14T08:18:48.725Z,15.23
2019-05-14T08:19:49.191Z,15.61
2019-05-14T08:20:48.688Z,15.96
2019-05-14T08:21:48.224Z,15.94
2019-05-14T08:22:49.032Z,17.44
2019-05-14T08:23:48.286Z,17.44
2019-05-14T08:24:48.917Z,18.07
2019-05-14T08:25:48.265Z,17.87
2019-05-14T08:26:48.655Z,17.32
2019-05-14T08:27:48.314Z,16.95
2019-05-14T08:28:48.820Z,16.70
2019-05-14T08:29:48.742Z,16.27
2019-05-14T08:30:49.089Z,15.94
2019-05-14T08:31:48.832Z,15.74
2019-05-14T08:32:48.952Z,16.35
2019-05-14T08:33:48.952Z,16.81
2019-05-14T08:34:48.165Z,16.63
2019-05-14T08:35:48.816Z,16.52
2019-05-14T08:36:48.312Z,16.30
2019-05-14T08:37:49.227Z,16.01
2019-05-14T08:38:49.969Z,15.79
2019-05-14T08:39:48.619Z,17.30
2019-05-14T08:40:48.923Z,19.05
2019-05-14T08:41:55.985Z,18.22
2019-05-14T08:42:49.084Z,17.67
2019-05-14T08:43:48.916Z,17.20
2019-05-14T08:44:51.047Z,16.80
2019-05-14T08:45:48.728Z,16.33
2019-05-14T08:46:48.691Z,15.74
2019-05-14T08:47:48.282Z,15.24
2019-05-14T08:48:49.587Z,14.90
2019-05-14T08:49:50.817Z,14.61
2019-05-14T08:50:48.148Z,14.39
2019-05-14T08:51:49.476Z,14.16
2019-05-14T08:52:48.356Z,14.02
2019-05-14T08:53:50.448Z,13.98
2019-05-14T08:54:50.577Z,14.07
2019-05-14T08:55:48.981Z,14.21
2019-05-14T08:56:49.071Z,16.40
2019-05-14T08:57:48.881Z,18.57
2019-05-14T08:58:49.456Z,19.46
2019-05-14T08:59:48.592Z,20.79
2019-05-14T09:00:48.253Z,22.31
2019-05-14T09:01:58.578Z,23.67
2019-05-14T09:02:48.754Z,23.61
2019-05-14T09:03:49.136Z,23.90
2019-05-14T09:04:53.984Z,22.62
2019-05-14T09:05:49.196Z,20.77
2019-05-14T09:06:48.943Z,19.55
2019-05-14T09:07:49.031Z,18.58
2019-05-14T09:08:49.651Z,18.07
2019-05-14T09:09:48.910Z,17.43
2019-05-14T09:10:49.745Z,17.13
2019-05-14T09:11:50.275Z,18.54
2019-05-14T09:12:49.083Z,18.67
2019-05-14T09:13:49.084Z,20.38
2019-05-14T09:14:48.378Z,20.43
2019-05-14T09:15:48.916Z,20.58
2019-05-14T09:16:50.926Z,20.10
2019-05-14T09:17:48.583Z,20.54
2019-05-14T09:18:49.167Z,19.28
2019-05-14T09:20:01.132Z,18.36
2019-05-14T09:20:48.960Z,17.62
2019-05-14T09:21:49.583Z,17.00
2019-05-14T09:22:49.008Z,16.71
2019-05-14T09:23:48.241Z,16.49
2019-05-14T09:24:49.105Z,16.48
2019-05-14T09:25:52.357Z,16.53
2019-05-14T09:26:48.456Z,16.44
2019-05-14T09:27:49.250Z,16.59
2019-05-14T09:28:48.333Z,16.52
2019-05-14T09:29:48.416Z,16.71
2019-05-14T09:30:48.739Z,17.22
2019-05-14T09:31:49.433Z,17.30
2019-05-14T09:32:49.292Z,16.98
2019-05-14T09:33:49.390Z,17.63
2019-05-14T09:34:48.648Z,19.36
2019-05-14T09:35:49.359Z,19.79
2019-05-14T09:36:48.860Z,19.02
2019-05-14T09:37:51.007Z,18.31
2019-05-14T09:38:49.120Z,17.81
2019-05-14T09:39:48.783Z,17.66
2019-05-14T09:40:48.937Z,17.97
2019-05-14T09:41:48.194Z,17.78
2019-05-14T09:42:49.852Z,18.44
2019-05-14T09:43:48.738Z,18.57
2019-05-14T09:44:49.025Z,18.61
2019-05-14T09:45:48.175Z,17.78
2019-05-14T09:46:47.079Z,17.40
2019-05-14T09:47:50.324Z,17.66
2019-05-14T09:48:48.630Z,17.44
2019-05-14T09:49:49.065Z,19.23
2019-05-14T09:50:48.996Z,20.10
2019-05-14T09:51:48.905Z,19.88
2019-05-14T09:52:49.218Z,20.18
2019-05-14T09:53:49.043Z,19.61
2019-05-14T09:54:49.375Z,19.90
2019-05-14T09:55:49.021Z,20.34
2019-05-14T09:56:48.532Z,21.50
2019-05-14T09:57:48.996Z,22.02
2019-05-14T09:58:49.237Z,20.27
2019-05-14T09:59:47.968Z,19.17
2019-05-14T10:00:48.567Z,18.22
2019-05-14T10:01:50.424Z,17.48
2019-05-14T10:02:49.329Z,17.20
2019-05-14T10:03:49.351Z,16.90
2019-05-14T10:04:48.977Z,16.80
2019-05-14T10:05:46.894Z,16.71
2019-05-14T10:06:48.489Z,16.53
2019-05-14T10:07:49.249Z,16.37
2019-05-14T10:08:48.567Z,16.55
2019-05-14T10:09:49.065Z,17.07
2019-05-14T10:10:48.876Z,17.08
2019-05-14T10:11:48.655Z,17.64
2019-05-14T10:12:54.072Z,17.14
2019-05-14T10:13:48.409Z,16.88
2019-05-14T10:14:48.696Z,16.77
2019-05-14T10:15:48.618Z,16.89
2019-05-14T10:16:49.108Z,16.63
2019-05-14T10:17:49.744Z,16.81
2019-05-14T10:18:49.022Z,16.55
2019-05-14T10:19:49.517Z,16.50
2019-05-14T10:20:49.240Z,16.53
2019-05-14T10:21:49.202Z,16.30
2019-05-14T10:22:48.237Z,16.38
2019-05-14T10:23:46.679Z,16.48
2019-05-14T10:24:46.669Z,16.58
2019-05-14T10:25:46.647Z,16.68
2019-05-14T10:26:49.016Z,16.53
2019-05-14T10:27:48.540Z,16.58
2019-05-14T10:28:48.451Z,16.62
2019-05-14T10:29:48.282Z,16.34
2019-05-14T10:30:48.949Z,15.99
2019-05-14T10:31:48.595Z,15.75
2019-05-14T10:32:49.040Z,15.49
2019-05-14T10:33:48.502Z,15.21
2019-05-14T10:34:48.511Z,15.08
2019-05-14T10:35:48.415Z,14.98
2019-05-14T10:36:46.538Z,14.86
2019-05-14T10:37:46.516Z,14.78
2019-05-14T10:38:46.498Z,14.88
2019-05-14T10:39:46.492Z,14.93
2019-05-14T10:40:46.484Z,15.09
2019-05-14T10:41:46.485Z,14.98
2019-05-14T10:42:49.269Z,15.12
2019-05-14T10:43:49.322Z,15.36
2019-05-14T10:44:46.432Z,15.39
2019-05-14T10:45:49.199Z,15.35
2019-05-14T10:46:46.429Z,16.14
2019-05-14T10:47:46.397Z,16.63
2019-05-14T10:48:46.401Z,17.41
2019-05-14T10:49:46.390Z,17.63
2019-05-14T10:50:59.023Z,17.08
2019-05-14T10:51:47.975Z,16.73
2019-05-14T10:52:48.942Z,16.40
2019-05-14T10:53:48.974Z,15.76
2019-05-14T10:54:55.492Z,15.24
2019-05-14T10:55:48.600Z,14.88
2019-05-14T10:56:49.279Z,14.78
2019-05-14T10:57:46.283Z,14.67
2019-05-14T10:58:48.895Z,14.62
2019-05-14T10:59:46.293Z,15.57
2019-05-14T11:00:46.284Z,16.56
2019-05-14T11:01:46.266Z,16.74
2019-05-14T11:02:46.246Z,16.56
2019-05-14T11:03:48.438Z,16.90
2019-05-14T11:04:48.362Z,17.44
2019-05-14T11:05:48.175Z,18.22
2019-05-14T11:06:46.218Z,19.68
2019-05-14T11:07:48.233Z,20.47
2019-05-14T11:08:46.166Z,20.00
2019-05-14T11:09:48.434Z,18.76
2019-05-14T11:10:46.154Z,18.02
2019-05-14T11:11:46.150Z,17.43
2019-05-14T11:12:46.145Z,16.78
2019-05-14T11:13:46.135Z,16.52
2019-05-14T11:14:46.115Z,16.37
2019-05-14T11:15:48.449Z,16.09
2019-05-14T11:16:48.400Z,15.97
2019-05-14T11:17:48.507Z,15.67
2019-05-14T11:18:49.274Z,15.45
2019-05-14T11:19:47.847Z,15.49
2019-05-14T11:20:51.089Z,15.54
2019-05-14T11:21:48.432Z,15.41
2019-05-14T11:22:48.937Z,15.38
2019-05-14T11:23:46.016Z,15.61
2019-05-14T11:24:46.010Z,15.70
2019-05-14T11:25:45.996Z,15.70
2019-05-14T11:26:48.543Z,16.35
2019-05-14T11:27:45.986Z,17.38
2019-05-14T11:28:48.805Z,17.89
2019-05-14T11:29:45.953Z,19.43
2019-05-14T11:30:45.935Z,19.94
2019-05-14T11:31:48.269Z,20.98
2019-05-14T11:32:45.915Z,21.19
2019-05-14T11:33:45.918Z,20.74
2019-05-14T11:34:45.900Z,20.13
2019-05-14T11:35:45.895Z,19.10
2019-05-14T11:36:45.892Z,18.37
2019-05-14T11:37:47.876Z,17.79
2019-05-14T11:38:45.859Z,17.10
2019-05-14T11:39:45.840Z,16.45
2019-05-14T11:40:45.833Z,16.25
2019-05-14T11:41:45.832Z,15.75
2019-05-14T11:42:45.803Z,15.52
2019-05-14T11:43:48.952Z,15.31
2019-05-14T11:44:45.798Z,15.08
2019-05-14T11:45:48.300Z,14.93
2019-05-14T11:46:52.171Z,14.81
2019-05-14T11:47:48.794Z,14.72
2019-05-14T11:48:48.742Z,14.67
2019-05-14T11:49:45.719Z,14.81
2019-05-14T11:50:45.708Z,14.80
2019-05-14T11:52:00.757Z,14.81
2019-05-14T11:52:48.405Z,14.99
2019-05-14T11:53:45.698Z,14.93
2019-05-14T11:54:45.669Z,14.94
2019-05-14T11:55:45.673Z,14.88
2019-05-14T11:56:48.146Z,14.75
2019-05-14T11:57:45.665Z,14.64
2019-05-14T11:58:45.635Z,14.54
2019-05-14T11:59:45.626Z,14.53
2019-05-14T12:00:45.605Z,14.42
2019-05-14T12:01:45.599Z,14.28
2019-05-14T12:02:45.605Z,14.37
2019-05-14T12:03:45.571Z,14.25
2019-05-14T12:04:45.568Z,14.27
2019-05-14T12:05:45.561Z,14.28
2019-05-14T12:06:45.547Z,14.21
2019-05-14T12:07:45.549Z,14.25
2019-05-14T12:08:45.524Z,14.27
2019-05-14T12:09:45.503Z,14.24
2019-05-14T12:10:45.509Z,14.38
2019-05-14T12:11:45.489Z,14.43
2019-05-14T12:12:45.485Z,14.46
2019-05-14T12:13:45.458Z,14.46
2019-05-14T12:14:45.453Z,14.65
2019-05-14T12:15:45.437Z,14.81
2019-05-14T12:16:45.440Z,15.03
2019-05-14T12:17:45.454Z,15.41
2019-05-14T12:18:45.418Z,15.48
2019-05-14T12:19:45.398Z,15.48
2019-05-14T12:20:45.387Z,15.33
2019-05-14T12:22:02.259Z,15.24
2019-05-14T12:22:48.662Z,14.91
2019-05-14T12:23:45.402Z,14.80
2019-05-14T12:24:45.349Z,14.65
2019-05-14T12:25:45.333Z,14.43
2019-05-14T12:26:45.315Z,14.10
2019-05-14T12:27:45.318Z,13.98
2019-05-14T12:28:45.305Z,13.96
2019-05-14T12:29:45.300Z,13.98
2019-05-14T12:30:45.279Z,14.01
2019-05-14T12:31:45.281Z,14.06
2019-05-14T12:32:45.266Z,14.14
2019-05-14T12:33:45.243Z,14.29
2019-05-14T12:34:45.232Z,14.42
2019-05-14T12:35:45.223Z,14.43
2019-05-14T12:36:45.223Z,14.29
2019-05-14T12:37:45.224Z,14.16
2019-05-14T12:38:45.199Z,14.12
2019-05-14T12:39:45.184Z,14.42
2019-05-14T12:40:45.162Z,14.64
2019-05-14T12:41:45.148Z,14.75
2019-05-14T12:42:45.155Z,14.74
2019-05-14T12:43:45.137Z,14.75
2019-05-14T12:44:45.120Z,14.81
2019-05-14T12:45:45.105Z,14.99
2019-05-14T12:46:45.108Z,15.20
2019-05-14T12:47:45.111Z,15.46
2019-05-14T12:48:45.085Z,15.70
2019-05-14T12:49:45.078Z,15.64
2019-05-14T12:50:45.060Z,15.64
2019-05-14T12:51:45.056Z,15.64
2019-05-14T12:52:45.037Z,15.59
2019-05-14T12:53:45.014Z,15.74
2019-05-14T12:54:45.001Z,15.96
2019-05-14T12:55:44.994Z,16.03
2019-05-14T12:56:44.993Z,15.78
2019-05-14T12:57:44.992Z,15.75
2019-05-14T12:58:46.009Z,15.75
2019-05-14T12:59:44.952Z,15.89
2019-05-14T13:00:44.962Z,15.97
2019-05-14T13:01:44.943Z,16.00